Douglas, United Kingdom
Current Conditions -  °F | °C
As of 2:20 PM on Sunday 25 Jan 2015 (Local Time) from EGPK Reporting Station
Broken Clouds Broken Clouds  
Wind Chill: 50°   Ceiling: 1000
Heat Index: 50°   Visibility: 6mi
Dew Point: 46°   Wind: 15mph
Humidity: 87%   Direction: 210°SSW
Pressure: 30.09"   Gusts: NA
Location:  55.55°N, 3.85°W
Report Text: EGPK 251420Z 21013KT 9999 FEW008 BKN010 10/08 Q1019
Loading
Personal Weather Stations






























Interactive Weather Map New forecast layout! Learn more

10-Day Weather Forecast

Advertisements
Track Severe Weather on mobile